Time;durP1;ratioP1;P1;durP2;ratioP2;P2;SDS_P1;SDS_P2;PMS_P1;PMS_P2;Temp;Humidity;BMP_temperature;BMP_pressure;BME280_temperature;BME280_humidity;BME280_pressure;Samples;Min_cycle;Max_cycle;Signal;HPM_P1;HPM_P2
2023/03/25 00:02:22;;;;;;;1.97;1.47;;;9.80;57.90;;;;;;5034702;28;20733;-73
2023/03/25 00:04:52;;;;;;;5.43;1.60;;;9.80;53.60;;;;;;5026616;28;20208;-72
2023/03/25 00:07:19;;;;;;;6.20;1.77;;;9.70;56.00;;;;;;5034878;28;20438;-72
2023/03/25 00:09:46;;;;;;;2.27;1.40;;;9.70;52.60;;;;;;5033565;28;20463;-71
2023/03/25 00:12:12;;;;;;;2.57;1.50;;;9.70;59.50;;;;;;5030021;28;20641;-72
2023/03/25 00:14:38;;;;;;;4.40;1.67;;;9.70;58.70;;;;;;5033904;28;20921;-71
2023/03/25 00:17:05;;;;;;;1.50;1.40;;;9.70;61.50;;;;;;5034886;28;20447;-72
2023/03/25 00:19:32;;;;;;;1.37;1.20;;;9.70;62.30;;;;;;5033815;28;20703;-74
2023/03/25 00:21:58;;;;;;;1.60;1.10;;;9.70;59.70;;;;;;5034069;28;20432;-72
2023/03/25 00:24:24;;;;;;;1.20;1.03;;;9.60;51.40;;;;;;5032504;28;20481;-70
2023/03/25 00:26:49;;;;;;;3.30;1.40;;;9.50;38.60;;;;;;5034662;28;20182;-72
2023/03/25 00:29:15;;;;;;;1.70;1.17;;;9.40;46.80;;;;;;5028606;28;20195;-75
2023/03/25 00:31:42;;;;;;;5.00;1.57;;;9.40;50.90;;;;;;5031205;28;20297;-72
2023/03/25 00:34:08;;;;;;;5.60;1.40;;;9.40;53.80;;;;;;5034594;28;20425;-73
2023/03/25 00:36:37;;;;;;;7.80;1.60;;;9.30;42.90;;;;;;5033955;28;20469;-72
2023/03/25 00:39:05;;;;;;;5.50;1.63;;;9.30;46.90;;;;;;5034098;28;20784;-72
2023/03/25 00:41:31;;;;;;;4.67;1.40;;;9.20;51.10;;;;;;5032862;28;20432;-72
2023/03/25 00:43:58;;;;;;;3.03;1.30;;;9.20;41.10;;;;;;5034919;28;20937;-72
2023/03/25 00:46:26;;;;;;;2.10;1.23;;;9.20;48.10;;;;;;5033756;28;20190;-69
2023/03/25 00:48:52;;;;;;;3.10;1.30;;;9.10;38.10;;;;;;5029576;28;20447;-72
2023/03/25 00:51:20;;;;;;;2.97;1.20;;;9.10;38.20;;;;;;5031587;28;20412;-72
2023/03/25 00:53:53;;;;;;;3.20;1.27;;;9.10;38.20;;;;;;5031382;28;20468;-72
2023/03/25 00:56:20;;;;;;;4.03;1.20;;;9.10;38.20;;;;;;5030908;28;20469;-72
2023/03/25 00:58:45;;;;;;;5.07;1.40;;;9.10;36.10;;;;;;5030584;28;20428;-72
2023/03/25 01:01:14;;;;;;;6.10;1.70;;;9.10;38.30;;;;;;5031264;28;20428;-72
2023/03/25 01:03:42;;;;;;;4.77;1.30;;;9.10;38.10;;;;;;5031396;28;20189;-72
2023/03/25 01:06:12;;;;;;;2.20;1.40;;;9.10;38.00;;;;;;5029957;28;20440;-72
2023/03/25 01:08:40;;;;;;;3.90;1.40;;;9.20;36.10;;;;;;5030915;28;20474;-72
2023/03/25 01:11:15;;;;;;;4.97;1.57;;;9.20;38.20;;;;;;5031389;28;20795;-72
2023/03/25 01:13:40;;;;;;;4.50;1.40;;;9.20;38.20;;;;;;5030619;28;20969;-71
2023/03/25 01:16:07;;;;;;;9.63;1.93;;;9.20;38.10;;;;;;5031249;28;20428;-72
2023/03/25 01:18:36;;;;;;;3.87;1.50;;;9.20;28.10;;;;;;5030523;28;20182;-69
2023/03/25 01:21:03;;;;;;;2.17;1.10;;;9.20;31.60;;;;;;5030918;28;20431;-72
2023/03/25 01:23:29;;;;;;;2.90;1.10;;;9.20;32.40;;;;;;5029870;28;20433;-73
2023/03/25 01:25:54;;;;;;;4.20;1.77;;;9.20;24.00;;;;;;5029435;28;20424;-72
2023/03/25 01:28:20;;;;;;;5.10;1.30;;;9.30;38.20;;;;;;5026207;28;20185;-72
2023/03/25 01:30:45;;;;;;;4.83;1.50;;;9.30;36.10;;;;;;5029671;28;20283;-72
2023/03/25 01:33:11;;;;;;;6.10;1.30;;;9.30;38.30;;;;;;5030947;28;20233;-72
2023/03/25 01:35:36;;;;;;;3.50;1.37;;;9.30;27.60;;;;;;5030385;28;20178;-72
2023/03/25 01:38:03;;;;;;;6.33;1.50;;;9.40;38.20;;;;;;5030725;28;20185;-72
2023/03/25 01:40:28;;;;;;;3.53;1.47;;;9.40;21.20;;;;;;5029690;28;20751;-72
2023/03/25 01:42:54;;;;;;;4.10;1.63;;;9.40;22.10;;;;;;5030901;28;20534;-71
2023/03/25 01:45:29;;;;;;;3.77;1.20;;;9.40;21.80;;;;;;5030271;28;20580;-72
2023/03/25 01:48:05;;;;;;;3.33;1.20;;;9.40;22.50;;;;;;5026290;28;20188;-72
2023/03/25 01:50:31;;;;;;;6.63;2.07;;;9.40;19.40;;;;;;5030855;28;20463;-73
2023/03/25 01:52:58;;;;;;;1.97;1.10;;;9.40;9.80;;;;;;5035497;28;20459;-71
2023/03/25 01:55:26;;;;;;;4.20;1.87;;;9.40;8.40;;;;;;5030209;28;20436;-74
2023/03/25 01:57:55;;;;;;;2.90;1.23;;;9.40;8.80;;;;;;5025724;28;20420;-72
2023/03/25 02:00:21;;;;;;;4.40;1.53;;;9.30;19.40;;;;;;5028333;28;20732;-72
2023/03/25 02:02:47;;;;;;;4.03;1.57;;;9.20;15.90;;;;;;5029549;28;20451;-71
2023/03/25 02:05:43;;;;;;;2.93;1.33;;;9.10;12.60;;;;;;5030381;28;20424;-72
2023/03/25 02:08:09;;;;;;;5.67;1.50;;;9.00;20.60;;;;;;5023016;28;20432;-72
2023/03/25 02:10:36;;;;;;;3.77;1.30;;;8.90;32.70;;;;;;5027680;28;21742;-73
2023/03/25 02:13:03;;;;;;;3.43;1.20;;;8.80;37.80;;;;;;5025924;28;20194;-73
2023/03/25 02:15:40;;;;;;;4.60;1.10;;;8.80;37.80;;;;;;5028784;28;20437;-73
2023/03/25 02:18:17;;;;;;;2.83;1.07;;;8.70;37.80;;;;;;5029356;28;20508;-73
2023/03/25 02:20:42;;;;;;;8.40;1.37;;;8.70;31.10;;;;;;5029351;28;20459;-72
2023/03/25 02:23:21;;;;;;;2.23;1.20;;;8.70;37.90;;;;;;5033180;28;20923;-73
2023/03/25 02:26:10;;;;;;;2.70;1.20;;;8.70;37.80;;;;;;5029482;28;20181;-74
2023/03/25 02:28:46;;;;;;;3.20;1.30;;;8.60;37.70;;;;;;5026430;28;20463;-73
2023/03/25 02:31:31;;;;;;;1.80;1.10;;;8.70;37.80;;;;;;5029544;28;20551;-74
2023/03/25 02:34:36;;;;;;;3.00;1.00;;;8.60;27.60;;;;;;5029499;28;20432;-73
2023/03/25 02:37:40;;;;;;;8.30;1.47;;;8.50;37.60;;;;;;5022605;28;20420;-72
2023/03/25 02:40:11;;;;;;;2.30;1.07;;;8.30;37.40;;;;;;5029147;28;20440;-73
2023/03/25 02:42:45;;;;;;;1.20;0.90;;;8.40;24.70;;;;;;5027609;28;20417;-74
2023/03/25 02:45:19;;;;;;;2.17;1.10;;;8.40;21.90;;;;;;5029390;28;20471;-72
2023/03/25 02:47:49;;;;;;;1.83;1.20;;;8.40;25.30;;;;;;5027828;28;20475;-73
2023/03/25 02:50:33;;;;;;;1.90;1.03;;;8.50;31.80;;;;;;5027842;28;20448;-73
2023/03/25 02:53:03;;;;;;;2.13;1.00;;;8.50;24.80;;;;;;5025474;28;20460;-73
2023/03/25 02:55:30;;;;;;;4.80;1.20;;;8.50;22.30;;;;;;5029409;28;20792;-73
2023/03/25 02:57:58;;;;;;;2.30;1.00;;;8.50;14.10;;;;;;5028879;28;20425;-73
2023/03/25 03:00:27;;;;;;;2.13;0.87;;;8.70;22.20;;;;;;5027432;28;20482;-72
2023/03/25 03:03:01;;;;;;;1.00;0.80;;;8.50;13.20;;;;;;5029102;28;21001;-73
2023/03/25 03:05:32;;;;;;;1.20;0.80;;;8.40;3.50;;;;;;5028876;28;20464;-73
2023/03/25 03:08:36;;;;;;;1.87;0.90;;;8.40;19.50;;;;;;5029059;28;20421;-72
2023/03/25 03:11:20;;;;;;;1.67;0.90;;;8.40;1.00;;;;;;5025358;28;21023;-73
2023/03/25 03:14:10;;;;;;;1.27;0.90;;;8.40;16.40;;;;;;5028636;28;20779;-73
2023/03/25 03:17:13;;;;;;;1.77;0.80;;;8.50;20.10;;;;;;5028440;28;20428;-72
2023/03/25 03:20:38;;;;;;;3.30;1.33;;;8.50;12.90;;;;;;5028530;28;20448;-73
2023/03/25 03:23:16;;;;;;;2.27;1.10;;;8.50;13.00;;;;;;5016174;28;20429;-72
2023/03/25 03:25:56;;;;;;;3.53;1.10;;;8.50;15.60;;;;;;5028828;28;20462;-74
2023/03/25 03:28:31;;;;;;;1.20;0.97;;;8.50;14.20;;;;;;5028384;28;20436;-74
2023/03/25 03:31:10;;;;;;;6.53;1.00;;;9.40;14.10;;;;;;5028293;28;20432;-74
2023/03/25 03:33:46;;;;;;;1.83;0.97;;;8.50;19.30;;;;;;5029027;28;20760;-72
2023/03/25 03:36:25;;;;;;;2.80;1.10;;;8.40;10.40;;;;;;5029112;28;20543;-74
2023/03/25 03:39:14;;;;;;;2.20;1.47;;;8.40;16.40;;;;;;5027271;28;20452;-73
2023/03/25 03:41:42;;;;;;;2.63;1.07;;;8.40;16.00;;;;;;5028765;28;20884;-74
2023/03/25 03:44:13;;;;;;;1.80;1.00;;;8.40;10.50;;;;;;5029218;28;20431;-73
2023/03/25 03:46:58;;;;;;;1.93;0.90;;;8.40;13.70;;;;;;5028430;28;20455;-73
2023/03/25 03:49:30;;;;;;;2.03;1.03;;;8.40;14.20;;;;;;5024401;28;20529;-72
2023/03/25 03:52:04;;;;;;;1.47;0.87;;;8.30;10.50;;;;;;5028889;28;20502;-72
2023/03/25 03:54:34;;;;;;;1.80;1.03;;;8.20;8.50;;;;;;5029510;28;20412;-72
2023/03/25 03:57:15;;;;;;;1.73;1.13;;;8.20;9.80;;;;;;5021015;28;20423;-72
2023/03/25 03:59:49;;;;;;;1.37;1.00;;;8.20;6.70;;;;;;5028582;28;20819;-74
2023/03/25 04:02:50;;;;;;;1.80;0.97;;;8.30;1.10;;;;;;5028978;28;20479;-72
2023/03/25 04:05:18;;;;;;;1.30;0.90;;;8.40;5.00;;;;;;5001040;28;20431;-73
2023/03/25 04:07:53;;;;;;;4.20;1.00;;;8.80;1.00;;;;;;5028840;28;20800;-72
2023/03/25 04:10:33;;;;;;;2.67;1.33;;;8.50;1.00;;;;;;5031035;28;20454;-72
2023/03/25 04:13:02;;;;;;;1.53;1.10;;;8.60;1.00;;;;;;5029215;28;20486;-73
2023/03/25 04:15:28;;;;;;;4.40;1.37;;;8.60;1.00;;;;;;5028566;28;20538;-72
2023/03/25 04:17:54;;;;;;;4.57;1.60;;;8.70;1.00;;;;;;5028519;28;20514;-72
2023/03/25 04:20:25;;;;;;;3.07;1.13;;;8.70;1.00;;;;;;5026662;28;20206;-72
2023/03/25 04:22:51;;;;;;;1.50;0.80;;;8.70;1.00;;;;;;5029363;28;20731;-75
2023/03/25 04:25:20;;;;;;;1.90;1.57;;;8.80;1.00;;;;;;5032259;28;20787;-74
2023/03/25 04:27:47;;;;;;;1.60;1.10;;;8.80;1.00;;;;;;5032254;28;20520;-73
2023/03/25 04:30:16;;;;;;;4.60;1.20;;;8.90;1.00;;;;;;5032047;28;20527;-74
2023/03/25 04:32:45;;;;;;;1.70;1.17;;;8.90;1.00;;;;;;5032054;28;20460;-72
2023/03/25 04:35:11;;;;;;;2.50;0.90;;;8.90;1.00;;;;;;5030503;28;20440;-73
2023/03/25 04:37:37;;;;;;;1.23;0.90;;;8.90;1.00;;;;;;5031273;28;20791;-74
2023/03/25 04:40:05;;;;;;;5.40;1.00;;;9.00;1.00;;;;;;5032046;28;20194;-73
2023/03/25 04:42:36;;;;;;;3.73;1.27;;;9.00;1.00;;;;;;5032591;28;20450;-73
2023/03/25 04:45:03;;;;;;;3.03;1.03;;;9.00;1.00;;;;;;5030303;28;21065;-74
2023/03/25 04:47:29;;;;;;;3.60;1.10;;;9.10;1.00;;;;;;5031427;28;20570;-72
2023/03/25 04:49:54;;;;;;;2.60;1.20;;;9.10;1.00;;;;;;5031797;28;20457;-71
2023/03/25 04:52:20;;;;;;;2.67;1.00;;;9.30;1.00;;;;;;5031895;28;20217;-72
2023/03/25 04:54:45;;;;;;;6.77;1.47;;;9.20;1.00;;;;;;5031483;28;20261;-70
2023/03/25 04:57:11;;;;;;;4.50;1.40;;;9.20;1.00;;;;;;5030346;28;20178;-71
2023/03/25 04:59:37;;;;;;;4.00;1.10;;;9.10;1.00;;;;;;5031460;28;20201;-71
2023/03/25 05:02:04;;;;;;;1.50;1.00;;;9.10;1.00;;;;;;5031172;28;20320;-71
2023/03/25 05:04:30;;;;;;;4.23;1.27;;;9.10;1.00;;;;;;5031760;28;20178;-71
2023/03/25 05:06:56;;;;;;;3.87;1.40;;;9.10;1.00;;;;;;5029646;28;20428;-71
2023/03/25 05:09:21;;;;;;;2.93;1.10;;;9.00;1.00;;;;;;5031021;28;20800;-70
2023/03/25 05:11:48;;;;;;;4.70;1.43;;;9.20;1.00;;;;;;5030900;28;20746;-71
2023/03/25 05:14:16;;;;;;;2.33;1.60;;;9.20;1.00;;;;;;5031530;28;20182;-70
2023/03/25 05:16:42;;;;;;;3.53;1.40;;;9.10;1.00;;;;;;5030415;28;20859;-70
2023/03/25 05:19:08;;;;;;;5.80;1.43;;;9.20;1.00;;;;;;5030000;28;20459;-71
2023/03/25 05:21:36;;;;;;;5.43;1.80;;;9.10;1.00;;;;;;5031109;28;20424;-71
2023/03/25 05:24:02;;;;;;;8.80;1.60;;;9.10;1.00;;;;;;5031184;28;20198;-71
2023/03/25 05:26:33;;;;;;;7.50;1.60;;;9.00;1.00;;;;;;5031019;28;20443;-71
2023/03/25 05:29:00;;;;;;;4.20;1.40;;;;;;;;;;5030523;28;20467;-71
2023/03/25 05:31:26;;;;;;;4.37;1.47;;;8.10;1.00;;;;;;5031039;28;20957;-71
2023/03/25 05:33:53;;;;;;;7.20;1.70;;;9.00;1.00;;;;;;5030262;28;20490;-71
2023/03/25 05:36:19;;;;;;;4.90;1.43;;;8.90;1.00;;;;;;5031119;28;20448;-71
2023/03/25 05:38:45;;;;;;;2.27;1.40;;;8.90;1.00;;;;;;5030768;28;20831;-71
2023/03/25 05:41:15;;;;;;;4.63;1.30;;;9.10;1.00;;;;;;5030675;28;20174;-70
2023/03/25 05:43:49;;;;;;;3.83;1.27;;;8.90;1.00;;;;;;5030897;28;20221;-71
2023/03/25 05:46:16;;;;;;;2.90;1.20;;;10.20;1.00;;;;;;5023891;28;20506;-70
2023/03/25 05:48:42;;;;;;;3.80;1.43;;;8.80;1.00;;;;;;5030697;28;20417;-68
2023/03/25 05:51:16;;;;;;;4.27;1.60;;;8.80;1.00;;;;;;5030525;28;20962;-71
2023/03/25 05:53:42;;;;;;;3.40;1.20;;;8.80;1.00;;;;;;5030833;28;20521;-68
2023/03/25 05:56:10;;;;;;;9.13;1.53;;;8.90;1.00;;;;;;5030582;28;20417;-71
2023/03/25 05:58:35;;;;;;;5.13;1.33;;;8.90;1.00;;;;;;5026711;28;20427;-71
2023/03/25 06:01:04;;;;;;;7.80;1.80;;;9.00;1.00;;;;;;5029217;28;20433;-71
2023/03/25 06:03:33;;;;;;;5.40;1.57;;;9.10;1.00;;;;;;5029596;28;20181;-71
2023/03/25 06:05:58;;;;;;;6.43;1.37;;;9.30;1.00;;;;;;5030503;28;20783;-71
2023/03/25 06:08:24;;;;;;;7.23;1.90;;;9.40;1.00;;;;;;5029142;28;20433;-71
2023/03/25 06:10:53;;;;;;;5.37;1.27;;;9.40;1.00;;;;;;5028156;28;20214;-71
2023/03/25 06:13:19;;;;;;;6.07;2.03;;;9.50;1.00;;;;;;5029249;28;20681;-71
2023/03/25 06:15:44;;;;;;;7.17;1.80;;;9.50;1.00;;;;;;5029318;28;20436;-70
2023/03/25 06:18:16;;;;;;;5.87;1.60;;;9.60;1.00;;;;;;5028547;28;20421;-71
2023/03/25 06:20:41;;;;;;;4.60;1.37;;;9.60;1.00;;;;;;5035764;28;20650;-71
2023/03/25 06:23:08;;;;;;;6.67;1.60;;;9.70;1.00;;;;;;5030082;28;20460;-71
2023/03/25 06:25:34;;;;;;;9.80;2.20;;;9.70;1.00;;;;;;5028491;28;20236;-71
2023/03/25 06:28:02;;;;;;;4.80;1.97;;;9.70;1.00;;;;;;5028673;28;20436;-71
2023/03/25 06:30:27;;;;;;;3.17;1.40;;;9.70;1.00;;;;;;5029646;28;20292;-71
2023/03/25 06:32:54;;;;;;;10.27;1.73;;;9.60;1.00;;;;;;5033921;28;20459;-71
2023/03/25 06:35:20;;;;;;;6.63;1.57;;;9.80;1.00;;;;;;5028708;28;20204;-71
2023/03/25 06:37:47;;;;;;;4.77;1.43;;;10.20;1.00;;;;;;5027919;28;20460;-71
2023/03/25 06:40:14;;;;;;;9.33;1.80;;;10.70;1.00;;;;;;5029623;28;20494;-71
2023/03/25 06:42:41;;;;;;;4.03;1.90;;;10.80;1.00;;;;;;5027398;28;20432;-71
2023/03/25 06:45:07;;;;;;;5.53;2.10;;;10.90;1.00;;;;;;5025345;28;20978;-71
2023/03/25 06:47:33;;;;;;;5.67;1.93;;;10.90;1.00;;;;;;5029609;28;20478;-71
2023/03/25 06:49:58;;;;;;;8.67;1.90;;;10.70;1.00;;;;;;5026314;28;20472;-71
2023/03/25 06:52:24;;;;;;;11.10;2.50;;;10.70;1.00;;;;;;5029614;28;20256;-72
2023/03/25 06:54:49;;;;;;;9.77;1.80;;;10.60;1.00;;;;;;5026250;28;20182;-70
2023/03/25 06:57:15;;;;;;;8.10;1.97;;;10.70;1.00;;;;;;5025843;28;20174;-71
2023/03/25 06:59:40;;;;;;;8.00;2.47;;;10.80;1.00;;;;;;5029336;28;20668;-71
2023/03/25 07:02:06;;;;;;;6.30;1.77;;;10.80;1.00;;;;;;5028089;28;20424;-71
2023/03/25 07:04:32;;;;;;;4.80;1.90;;;10.90;1.00;;;;;;5029259;28;20610;-71
2023/03/25 07:06:57;;;;;;;7.90;1.70;;;10.90;1.00;;;;;;5030237;28;20421;-71
2023/03/25 07:09:23;;;;;;;4.00;1.97;;;10.90;1.00;;;;;;5030902;28;20292;-71
2023/03/25 07:11:48;;;;;;;5.00;1.80;;;11.00;1.00;;;;;;5024550;28;20213;-71
2023/03/25 07:14:14;;;;;;;4.93;1.50;;;11.00;1.00;;;;;;5029124;28;20182;-71
2023/03/25 07:16:39;;;;;;;7.20;1.60;;;11.10;1.00;;;;;;5028054;28;20184;-71
2023/03/25 07:19:05;;;;;;;5.13;1.60;;;11.60;1.00;;;;;;5035394;28;20202;-71
2023/03/25 07:21:30;;;;;;;5.20;1.60;;;12.20;1.00;;;;;;5028524;28;20189;-70
2023/03/25 07:23:56;;;;;;;6.20;2.00;;;12.80;1.00;;;;;;5027670;28;20324;-69
2023/03/25 07:26:21;;;;;;;7.27;2.20;;;13.40;1.00;;;;;;5029169;28;20370;-72
2023/03/25 07:28:47;;;;;;;4.20;1.60;;;13.60;1.00;;;;;;5028647;28;20190;-69
2023/03/25 07:31:15;;;;;;;4.33;1.40;;;14.40;1.00;;;;;;5034276;28;20664;-71
2023/03/25 07:33:40;;;;;;;9.45;1.80;;;14.50;1.00;;;;;;5029729;28;20436;-71
2023/03/25 07:36:07;;;;;;;6.20;1.87;;;14.70;1.00;;;;;;5023544;28;20208;-71
2023/03/25 07:38:34;;;;;;;8.00;1.90;;;14.70;1.00;;;;;;5024108;28;20201;-70
2023/03/25 07:41:04;;;;;;;5.20;1.50;;;14.90;1.00;;;;;;5026169;28;20435;-72
2023/03/25 07:43:31;;;;;;;8.00;1.80;;;14.20;1.00;;;;;;5029044;28;20818;-70
2023/03/25 07:45:57;;;;;;;7.20;1.70;;;13.60;1.00;;;;;;5027293;28;20521;-71
2023/03/25 07:48:23;;;;;;;5.63;1.63;;;13.10;1.00;;;;;;5019238;28;20908;-71
2023/03/25 07:50:51;;;;;;;5.53;1.73;;;12.70;1.00;;;;;;5017625;28;20206;-69
2023/03/25 07:53:17;;;;;;;11.17;2.30;;;12.50;1.00;;;;;;5020342;28;20200;-69
2023/03/25 07:55:44;;;;;;;6.00;1.50;;;12.50;1.00;;;;;;5027661;28;20436;-71
2023/03/25 07:58:10;;;;;;;6.07;2.10;;;12.60;1.00;;;;;;5031767;28;20518;-70
2023/03/25 08:00:35;;;;;;;4.30;1.60;;;12.60;1.00;;;;;;5033258;28;20443;-71
2023/03/25 08:03:02;;;;;;;5.90;1.60;;;12.50;1.00;;;;;;5033011;28;20247;-70
2023/03/25 08:05:28;;;;;;;8.37;1.73;;;12.20;1.00;;;;;;5032815;28;20228;-71
2023/03/25 08:07:54;;;;;;;9.13;1.63;;;12.20;1.00;;;;;;5030691;28;20424;-70
2023/03/25 08:10:20;;;;;;;7.50;1.83;;;12.40;1.00;;;;;;5032225;28;20509;-71
2023/03/25 08:12:46;;;;;;;4.03;1.70;;;12.80;1.00;;;;;;5033117;28;20703;-71
2023/03/25 08:15:12;;;;;;;4.07;1.43;;;13.30;1.00;;;;;;5032263;28;20173;-71
2023/03/25 08:17:38;;;;;;;5.80;2.00;;;14.50;1.00;;;;;;5032779;28;20416;-70
2023/03/25 08:20:05;;;;;;;3.67;1.30;;;15.70;1.00;;;;;;5031447;28;20483;-71
2023/03/25 08:22:32;;;;;;;3.93;1.60;;;16.80;1.00;;;;;;5032645;28;20412;-71
2023/03/25 08:24:58;;;;;;;4.32;1.70;;;17.00;1.00;;;;;;5028200;28;20429;-71
2023/03/25 08:27:23;;;;;;;5.10;1.50;;;16.70;1.00;;;;;;5026408;28;20192;-71
2023/03/25 08:29:53;;;;;;;3.10;1.10;;;16.30;1.00;;;;;;5023173;28;20297;-72
2023/03/25 08:32:23;;;;;;;1.80;1.00;;;15.20;1.00;;;;;;5023244;28;20338;-72
2023/03/25 08:34:49;;;;;;;3.43;0.97;;;14.40;1.00;;;;;;5030995;28;20424;-77
2023/03/25 08:37:15;;;;;;;1.50;1.10;;;14.30;1.00;;;;;;5031797;28;20428;-72
2023/03/25 08:39:43;;;;;;;2.63;1.10;;;14.40;1.00;;;;;;5031203;28;20201;-72
2023/03/25 08:42:11;;;;;;;1.80;1.07;;;13.90;1.00;;;;;;5029279;28;20200;-71
2023/03/25 08:44:36;;;;;;;5.20;1.13;;;13.60;1.00;;;;;;5029265;28;20631;-71
2023/03/25 08:47:02;;;;;;;2.37;1.10;;;13.80;1.00;;;;;;5028288;28;20986;-71
2023/03/25 08:49:28;;;;;;;3.70;1.10;;;13.80;1.00;;;;;;5030882;28;20202;-72
2023/03/25 08:51:56;;;;;;;1.10;0.80;;;13.50;1.00;;;;;;5028264;28;20612;-70
2023/03/25 08:54:22;;;;;;;2.20;1.00;;;12.60;1.00;;;;;;5028760;28;20174;-72
2023/03/25 08:56:47;;;;;;;3.77;1.30;;;12.30;1.00;;;;;;5027046;28;20439;-72
2023/03/25 08:59:13;;;;;;;2.90;1.00;;;12.30;1.00;;;;;;5031614;28;20206;-71
2023/03/25 09:01:39;;;;;;;2.60;1.10;;;12.20;1.00;;;;;;5028174;28;20216;-71
2023/03/25 09:04:04;;;;;;;1.63;1.00;;;12.20;1.00;;;;;;5026025;28;20264;-71
2023/03/25 09:06:30;;;;;;;2.30;1.00;;;12.40;1.00;;;;;;5027683;28;20635;-71
2023/03/25 09:08:55;;;;;;;1.80;1.03;;;12.20;1.00;;;;;;5029537;28;20221;-71
2023/03/25 09:11:21;;;;;;;4.93;1.17;;;12.10;1.00;;;;;;5029113;28;20202;-71
2023/03/25 09:13:46;;;;;;;2.50;1.10;;;12.00;1.00;;;;;;5026075;28;20256;-70
2023/03/25 09:16:12;;;;;;;2.10;1.10;;;11.90;1.00;;;;;;5025564;28;20193;-73
2023/03/25 09:18:38;;;;;;;3.80;1.27;;;11.80;1.00;;;;;;5028431;28;20178;-74
2023/03/25 09:21:03;;;;;;;2.37;1.20;;;11.90;1.00;;;;;;5029338;28;20186;-73
2023/03/25 09:23:29;;;;;;;2.03;1.10;;;12.50;1.00;;;;;;5026006;28;20190;-72
2023/03/25 09:26:00;;;;;;;3.20;1.17;;;13.40;1.00;;;;;;5028590;28;20196;-73
2023/03/25 09:28:25;;;;;;;1.27;0.80;;;13.70;1.00;;;;;;5023579;28;20272;-75
2023/03/25 09:30:52;;;;;;;2.47;1.00;;;13.50;1.00;;;;;;5027420;28;20869;-75
2023/03/25 09:33:18;;;;;;;2.70;1.03;;;13.40;1.00;;;;;;5026568;28;20635;-75
2023/03/25 09:35:43;;;;;;;1.83;1.17;;;13.20;1.00;;;;;;5029917;28;20425;-74
2023/03/25 09:38:09;;;;;;;3.30;1.00;;;13.20;1.00;;;;;;5027482;28;20178;-75
2023/03/25 09:40:34;;;;;;;1.43;0.90;;;13.10;1.00;;;;;;5023118;28;20205;-75
2023/03/25 09:43:03;;;;;;;5.97;1.10;;;13.10;1.00;;;;;;5026381;28;20656;-72
2023/03/25 09:45:28;;;;;;;3.57;1.10;;;12.90;1.00;;;;;;5025242;28;20192;-72
2023/03/25 09:48:07;;;;;;;2.10;1.30;;;13.00;1.00;;;;;;5029894;28;20436;-72
2023/03/25 09:50:35;;;;;;;1.93;1.10;;;13.00;1.00;;;;;;5028398;28;20216;-72
2023/03/25 09:53:18;;;;;;;5.73;1.20;;;13.10;1.00;;;;;;5030826;28;20555;-73
2023/03/25 09:55:45;;;;;;;6.00;1.20;;;13.30;1.00;;;;;;5026602;28;20440;-72
2023/03/25 09:58:35;;;;;;;1.90;0.87;;;13.00;1.00;;;;;;5027671;28;20989;-73
2023/03/25 10:01:21;;;;;;;4.10;1.10;;;12.70;1.00;;;;;;5023547;28;20523;-72
2023/03/25 10:04:09;;;;;;;3.47;1.20;;;12.40;1.00;;;;;;5029940;28;20436;-72
2023/03/25 10:06:45;;;;;;;2.93;1.10;;;12.90;1.00;;;;;;5024569;28;20448;-72
2023/03/25 10:09:22;;;;;;;2.50;1.13;;;13.20;1.00;;;;;;5030559;28;20448;-72
2023/03/25 10:12:25;;;;;;;2.23;1.10;;;13.30;1.00;;;;;;5030762;28;20420;-72
2023/03/25 10:15:03;;;;;;;1.97;1.13;;;13.20;1.00;;;;;;5030586;28;20420;-72
2023/03/25 10:17:58;;;;;;;2.23;1.10;;;13.10;1.00;;;;;;5030745;28;20412;-72
2023/03/25 10:20:56;;;;;;;2.50;1.10;;;13.60;1.00;;;;;;5030440;28;20886;-72
2023/03/25 10:23:54;;;;;;;1.87;1.13;;;14.00;1.00;;;;;;5023204;28;20949;-72
2023/03/25 10:26:49;;;;;;;2.17;1.07;;;14.70;1.00;;;;;;5030184;28;20723;-72
2023/03/25 10:29:20;;;;;;;2.67;1.40;;;15.70;1.00;;;;;;5017933;28;20508;-73
2023/03/25 10:31:51;;;;;;;2.07;1.30;;;16.60;1.00;;;;;;5030102;28;20420;-72
2023/03/25 10:34:23;;;;;;;1.83;0.97;;;16.40;1.00;;;;;;5030033;28;20444;-72
2023/03/25 10:36:54;;;;;;;2.50;1.20;;;17.50;1.00;;;;;;5029376;28;20529;-71
2023/03/25 10:39:21;;;;;;;3.30;1.20;;;19.90;1.00;;;;;;5030037;28;20448;-72
2023/03/25 10:41:56;;;;;;;2.80;1.20;;;19.90;1.00;;;;;;5030177;28;20799;-73
2023/03/25 10:44:25;;;;;;;3.90;1.50;;;20.80;1.00;;;;;;5029821;28;20443;-72
2023/03/25 10:47:05;;;;;;;3.90;1.60;;;20.90;1.00;;;;;;5029821;28;20946;-71
2023/03/25 10:49:32;;;;;;;3.73;1.50;;;21.30;1.00;;;;;;5078985;22;20506;-71
2023/03/25 10:51:59;;;;;;;5.97;1.50;;;22.20;1.00;;;;;;5029488;28;20435;-71
2023/03/25 10:54:38;;;;;;;3.97;1.10;;;22.40;1.00;;;;;;5020918;28;20425;-71
2023/03/25 10:57:09;;;;;;;3.77;1.43;;;20.60;1.00;;;;;;5029310;28;20423;-71
2023/03/25 11:00:05;;;;;;;3.20;1.30;;;18.90;1.00;;;;;;5018903;28;20441;-70
2023/03/25 11:02:31;;;;;;;3.10;1.30;;;17.50;1.00;;;;;;4980712;28;20803;-71
2023/03/25 11:05:00;;;;;;;2.73;1.20;;;16.20;1.00;;;;;;5009773;28;20425;-71
2023/03/25 11:07:37;;;;;;;2.67;1.50;;;15.50;1.00;;;;;;5008033;28;20197;-71
2023/03/25 11:10:19;;;;;;;2.20;1.10;;;15.00;1.00;;;;;;5009555;28;20445;-71
2023/03/25 11:12:46;;;;;;;4.80;1.30;;;13.90;1.00;;;;;;5010215;28;20465;-71
2023/03/25 11:15:22;;;;;;;2.17;1.07;;;12.60;1.00;;;;;;5007738;28;20959;-70
2023/03/25 11:17:59;;;;;;;3.53;1.47;;;12.10;1.00;;;;;;5008528;28;20796;-70
2023/03/25 11:20:29;;;;;;;7.80;1.50;;;11.90;1.00;;;;;;5000147;28;20906;-70
2023/03/25 11:23:02;;;;;;;3.80;1.10;;;11.80;1.00;;;;;;5009633;28;20448;-70
2023/03/25 11:25:36;;;;;;;3.10;1.30;;;11.50;1.00;;;;;;5007479;28;20430;-70
2023/03/25 11:28:09;;;;;;;3.63;1.23;;;11.30;1.00;;;;;;5009481;28;20428;-68
2023/03/25 11:30:35;;;;;;;4.00;1.53;;;11.30;1.00;;;;;;5003476;28;21035;-70
2023/03/25 11:33:13;;;;;;;5.13;1.70;;;11.70;1.00;;;;;;5007967;28;20560;-70
2023/03/25 11:35:43;;;;;;;4.10;1.53;;;11.60;1.00;;;;;;5000724;28;20407;-71
2023/03/25 11:38:38;;;;;;;1.97;1.60;;;11.50;1.00;;;;;;5005428;28;20429;-70
2023/03/25 11:41:05;;;;;;;1.93;1.13;;;11.80;1.00;;;;;;4993732;28;20452;-70
2023/03/25 11:43:36;;;;;;;2.10;1.10;;;11.90;1.00;;;;;;5001200;28;20440;-70
2023/03/25 11:46:13;;;;;;;2.90;1.20;;;11.80;1.00;;;;;;5007078;28;20495;-67
2023/03/25 11:48:41;;;;;;;8.47;4.00;;;12.00;1.00;;;;;;5011999;28;20429;-71
2023/03/25 11:51:24;;;;;;;9.63;2.60;;;12.00;1.00;;;;;;5009267;28;20457;-69
2023/03/25 11:53:57;;;;;;;3.77;2.13;;;11.90;1.00;;;;;;5021565;28;20465;-72
2023/03/25 11:56:29;;;;;;;3.80;1.33;;;10.70;1.00;;;;;;5005481;28;20457;-69
2023/03/25 11:58:58;;;;;;;2.53;1.10;;;9.90;7.90;;;;;;5007659;28;20824;-70
2023/03/25 12:01:36;;;;;;;1.90;1.03;;;9.70;11.40;;;;;;5004047;28;20580;-70
2023/03/25 12:04:27;;;;;;;3.37;1.20;;;9.90;1.00;;;;;;5016308;28;20437;-70
2023/03/25 12:06:58;;;;;;;3.37;1.90;;;10.20;1.00;;;;;;5002663;28;20476;-70
2023/03/25 12:09:26;;;;;;;1.87;1.10;;;11.00;3.60;;;;;;5005750;28;20464;-69
2023/03/25 12:12:25;;;;;;;2.13;1.10;;;14.30;1.00;;;;;;5007591;28;20445;-70
2023/03/25 12:15:07;;;;;;;3.23;1.17;;;18.40;1.00;;;;;;5022337;28;20432;-70
2023/03/25 12:18:02;;;;;;;2.70;1.20;;;21.40;1.00;;;;;;4999913;28;20905;-70
2023/03/25 12:20:47;;;;;;;3.23;1.87;;;23.20;1.00;;;;;;5006984;28;20540;-70
2023/03/25 12:23:46;;;;;;;3.47;1.53;;;24.80;1.00;;;;;;5007733;28;20951;-71
2023/03/25 12:27:01;;;;;;;3.53;2.23;;;26.20;1.00;;;;;;5005219;28;20536;-71
2023/03/25 12:29:49;;;;;;;2.70;1.50;;;26.80;1.00;;;;;;4992486;28;20445;-72
2023/03/25 12:32:44;;;;;;;4.70;3.40;;;27.20;1.00;;;;;;5006969;28;20495;-73
2023/03/25 12:35:17;;;;;;;3.60;1.33;;;27.30;1.00;;;;;;5019885;28;20440;-71
2023/03/25 12:38:01;;;;;;;3.23;1.40;;;26.50;1.00;;;;;;5005293;28;20440;-71
2023/03/25 12:40:46;;;;;;;3.83;1.20;;;24.60;1.00;;;;;;5005332;28;21005;-71
2023/03/25 12:43:27;;;;;;;5.20;1.50;;;22.20;1.00;;;;;;5008740;28;20936;-70
2023/03/25 12:46:17;;;;;;;5.47;1.43;;;19.70;1.00;;;;;;5010606;28;20433;-71
2023/03/25 12:49:02;;;;;;;2.87;1.37;;;18.00;1.00;;;;;;5018329;28;20513;-69
2023/03/25 12:51:59;;;;;;;4.00;1.40;;;16.90;1.00;;;;;;5008610;28;20531;-72
2023/03/25 12:54:57;;;;;;;3.23;2.30;;;16.40;1.00;;;;;;5011744;28;20437;-70
2023/03/25 12:57:44;;;;;;;2.53;1.23;;;15.50;1.00;;;;;;5009880;28;20971;-71
2023/03/25 13:00:34;;;;;;;4.13;1.40;;;15.70;1.00;;;;;;5016744;28;20452;-71
2023/03/25 13:03:15;;;;;;;4.23;1.47;;;18.60;1.00;;;;;;5010626;28;20504;-71
2023/03/25 13:05:56;;;;;;;3.87;1.40;;;23.00;1.00;;;;;;5003448;28;20441;-71
2023/03/25 13:08:38;;;;;;;5.70;1.73;;;24.40;1.00;;;;;;5010208;28;20444;-71
2023/03/25 13:11:29;;;;;;;4.07;1.50;;;22.80;1.00;;;;;;5010985;28;20970;-72
2023/03/25 13:13:59;;;;;;;4.03;1.40;;;20.80;1.00;;;;;;5009401;28;20484;-71
2023/03/25 13:16:27;;;;;;;3.97;1.90;;;19.30;1.00;;;;;;5011881;28;20560;-71
2023/03/25 13:18:59;;;;;;;4.30;1.50;;;18.10;1.00;;;;;;5010918;28;20481;-71
2023/03/25 13:21:34;;;;;;;6.50;3.10;;;17.20;1.00;;;;;;5008263;28;20469;-71
2023/03/25 13:24:23;;;;;;;6.30;3.03;;;17.00;1.00;;;;;;5004098;28;20433;-71
2023/03/25 13:26:52;;;;;;;7.43;1.50;;;17.30;1.00;;;;;;4996512;28;20448;-71